Point Lay, AK

2:33 AM AKST on February 13, 2016 (GMT -0900)
Cape Lisburne LRRS | | Change Station
CLOSE
Current Station
Airport
Location: Cape Lisburne,
Elevation: 10 ft
Nearby Weather Stations
Active Advisory: Blizzard Warning

Elev 10 ft 68.88 °N, 166.13 °W | Updated 38 minutes ago

Light Snow
Light Snow
2 °F
Feels Like -14 °F
N
10
Wind Variable Wind from NE

Today
High -- | Low -- °F
--% Chance of Precip.
Yesterday
High -- | Low -- °F
Precip. -- in
Pressure 29.56 in
Visibility 10.0 miles
Clouds Overcast 1200 ft
Windchill -14 °F
Dew Point -1 °F
Humidity 88%
Rainfall 0.00 in
Snow Depth Not available.
10:33 AM 5:40 PM
Waxing Crescent, 30% visible
METAR PALU 131055Z AUTO 05009KT 020V100 10SM -SN OVC012 M17/M18 A2956 RMK AO2 SNB0955 SLP009 P0000 T11661181
Pressure 29.56 in
Visibility 10.0 miles
Clouds Overcast 1200 ft
Windchill -14 °F
Dew Point -1 °F
Humidity 88%
Rainfall 0.00 in
Snow Depth Not available.
10:33 AM 5:40 PM
Waxing Crescent, 30% visible
METAR PALU 131055Z AUTO 05009KT 020V100 10SM -SN OVC012 M17/M18 A2956 RMK AO2 SNB0955 SLP009 P0000 T11661181

10-Day Weather Forecast

Almanac

Astronomy

Feb. 13, 2016 Rise Set
Actual Time
Civil Twilight
Nautical Twilight
Astronomical Twilight
Moon
Length of Visible Light
Length of Day
Tomorrow will be .
, % of the Moon is Illuminated

Today's Extremes

State Highs State Lows

Community

WunderPhotos

Upload Photos

1,892,541 photos uploaded!

WunderBlog® & News

Nearby

Air Quality

  Air Quality AQ Index Pollutant
Not available.

Snow Depth

Station Depth Elevation

Earthquake Activity

City Distance Mag. Time & Date
Minimum magnitude displayed is 2.5.

Coastal Water Temperatures

Place Temperature

Stations

Nearby Weather Stations

Station Location Temp. Windchill Dew Point Humidity Wind Precip. Elev Updated Type
                   

Watches & Warnings

Blizzard Warning
Issued: 2:25 PM AKST Feb. 12, 2016 – National Weather Service

... Blizzard Warning now in effect until 6 am akst Sunday...

* location... from Wainwright east.

* Snow... with a storm total accumulation of 3 inches.

* Blowing snow... reducing visibility to one quarter mile mile or
less.

* Winds... east 30 mph gusting to 40 mph.

* Timing... visibility has temporarily improves this afternoon as
winds have decreased. Winds will increase tonight and blizzard
conditions will return this evening. The worst conditions
tonight and Saturday. Conditions will likely continue though
early Sunday morning.

* Impacts... visibility will be greatly reduced and snow will
accumulate into drifts. Whiteout conditions may occur. Travel
and outdoor activities will be difficult.

Precautionary/preparedness actions...

A Blizzard Warning means severe winter weather conditions in
blowing snow with strong winds and very poor visibilities are
occurring or expected.